Avoca, IA (51521)

04:48 CDT le 30 septembre 2014 (GMT -0500)
Harlan Municipal | Change Station
CLOSE
Current Station
Aéroport
Location: Harlan,
Altitude: 1230 ft
Stations météo à proximité

Alt. 1230 ft 41.58 °N, 95.34 °W | Updated 13 minutes ago

Partiellement nuageux
Partiellement nuageux
59 ° F
Paraît 59 ° F
N
5
Vent Variable Vent de Est

Aujourd'hui
Haut(e) -- | Bas -- ° F
--% Risque de précip.
Hier
Haut(e) -- | Bas -- ° F
Precip. -- pouce
7:17 AM 7:04 PM
Lune montante, 35% visible
Pression 29.97 pouce
Visibilité 5.0 Miles terrestres
Nuages Couvert 600 ft
Point de rosée 59 ° F
Humidité 100%
Précipitations 0.00 pouce
Profondeur de la couche neigeuse Non disponible.
UV 0 sur 12
Pollen 4.60 sur 12
Ozone Bon
PM2.5 Moyen
Flu Activity Non disponible.
METAR KHNR 300935Z AUTO 09004KT 5SM BR OVC006 15/15 A2997 RMK AO2

More Conditions Fewer Conditions

Pression 29.97 pouce
Visibilité 5.0 Miles terrestres
Nuages Couvert 600 ft
Point de rosée 59 ° F
Humidité 100%
Précipitations 0.00 pouce
Profondeur de la couche neigeuse Non disponible.
UV 0 sur 12
Pollen 4.60 sur 12
Ozone Bon
PM2.5 Moyen
Flu Activity Non disponible.
METAR KHNR 300935Z AUTO 09004KT 5SM BR OVC006 15/15 A2997 RMK AO2

More Conditions Fewer Conditions

10-Day Weather Forecast

Almanac

Astronomie

Sep. 30, 2014 Lever Coucher
Temps réel 07:17 CDT 19:04 CDT
Crépuscule civil 06:49 CDT 19:32 CDT
Crépuscule nautique 06:17 CDT 20:04 CDT
Crépuscule astronomique 05:44 CDT 20:36 CDT
Lune 13:29 CDT 23:32 CDT
Durée de lumière visible 12h 42m
Longueur du jour
11h 47m
Tomorrow will be 2m 45s shorter.
Lune montante, 35% of the Moon is Illuminated
Aujourd'hui
Lune montante
Oct 1
Premier quartier
Oct 8
Pleine lune
Oct 15
Dernier quartier
Oct 23
Nouveau

Extrêmes aujourd'hui

State Highs State Lows

Community

WunderPhotos

Upload Photos

1,757,606 Photos téléchargées !

Nearby

Qualité de l'air

  Qualité de l'air Indice de la qualité de l'air Polluant
Hier Moyen
PM2.5
Hier Bon
OZONE
Actuel Moyen
PM2.5
Actuel Bon
OZONE
mardi Bon
PM2.5
mardi Bon
OZONE
mardi Bon
CO

Épaisseur de neige

Station Depth Altitude
Pas de nouvelles chutes de neige

Activité sismique

Ville Distance Mag. Time & Date
No recent earthquake activity has been reported nearby.
Minimum magnitude displayed is 2.5.

Températures des eaux côtières

Lieu Température
Aucun rapport de station

Stations météo à proximité